sensor_id;sensor_type;location;lat;lon;timestamp;P1;durP1;ratioP1;P2;durP2;ratioP2
40637;SDS011;26336;44.696;10.622;2022-07-09T00:00:20;2.22;;;1.00;;
40637;SDS011;26336;44.696;10.622;2022-07-09T00:03:24;3.55;;;1.10;;
40637;SDS011;26336;44.696;10.622;2022-07-09T00:06:29;2.10;;;1.00;;
40637;SDS011;26336;44.696;10.622;2022-07-09T00:09:35;1.38;;;1.00;;
40637;SDS011;26336;44.696;10.622;2022-07-09T00:12:39;3.15;;;0.90;;
40637;SDS011;26336;44.696;10.622;2022-07-09T00:15:43;2.72;;;1.10;;
40637;SDS011;26336;44.696;10.622;2022-07-09T00:18:47;1.27;;;0.82;;
40637;SDS011;26336;44.696;10.622;2022-07-09T00:21:51;3.67;;;1.25;;
40637;SDS011;26336;44.696;10.622;2022-07-09T00:24:56;1.63;;;0.90;;
40637;SDS011;26336;44.696;10.622;2022-07-09T00:28:00;3.35;;;0.90;;
40637;SDS011;26336;44.696;10.622;2022-07-09T00:31:04;1.95;;;1.08;;
40637;SDS011;26336;44.696;10.622;2022-07-09T00:34:08;4.43;;;1.20;;
40637;SDS011;26336;44.696;10.622;2022-07-09T00:37:12;1.65;;;1.00;;
40637;SDS011;26336;44.696;10.622;2022-07-09T00:40:16;1.48;;;0.98;;
40637;SDS011;26336;44.696;10.622;2022-07-09T00:43:21;2.00;;;1.17;;
40637;SDS011;26336;44.696;10.622;2022-07-09T00:46:29;2.72;;;1.15;;
40637;SDS011;26336;44.696;10.622;2022-07-09T00:49:38;1.75;;;0.90;;
40637;SDS011;26336;44.696;10.622;2022-07-09T00:52:44;3.15;;;1.00;;
40637;SDS011;26336;44.696;10.622;2022-07-09T00:55:49;2.45;;;1.00;;
40637;SDS011;26336;44.696;10.622;2022-07-09T00:58:54;1.08;;;0.93;;
40637;SDS011;26336;44.696;10.622;2022-07-09T01:01:59;1.73;;;1.15;;
40637;SDS011;26336;44.696;10.622;2022-07-09T01:05:04;1.73;;;1.02;;
40637;SDS011;26336;44.696;10.622;2022-07-09T01:08:08;2.00;;;1.35;;
40637;SDS011;26336;44.696;10.622;2022-07-09T01:11:13;2.60;;;1.20;;
40637;SDS011;26336;44.696;10.622;2022-07-09T01:14:18;2.13;;;1.30;;
40637;SDS011;26336;44.696;10.622;2022-07-09T01:17:22;2.13;;;1.13;;
40637;SDS011;26336;44.696;10.622;2022-07-09T01:20:26;1.80;;;1.08;;
40637;SDS011;26336;44.696;10.622;2022-07-09T01:23:34;1.50;;;1.17;;
40637;SDS011;26336;44.696;10.622;2022-07-09T01:26:38;2.05;;;1.00;;
40637;SDS011;26336;44.696;10.622;2022-07-09T01:29:42;1.05;;;0.90;;
40637;SDS011;26336;44.696;10.622;2022-07-09T01:32:51;3.83;;;1.33;;
40637;SDS011;26336;44.696;10.622;2022-07-09T01:35:56;2.70;;;1.00;;
40637;SDS011;26336;44.696;10.622;2022-07-09T01:39:01;2.33;;;1.08;;
40637;SDS011;26336;44.696;10.622;2022-07-09T01:42:05;1.98;;;1.27;;
40637;SDS011;26336;44.696;10.622;2022-07-09T01:45:09;2.00;;;1.10;;
40637;SDS011;26336;44.696;10.622;2022-07-09T01:48:13;2.35;;;0.93;;
40637;SDS011;26336;44.696;10.622;2022-07-09T01:51:18;2.80;;;1.35;;
40637;SDS011;26336;44.696;10.622;2022-07-09T01:54:25;2.60;;;1.13;;
40637;SDS011;26336;44.696;10.622;2022-07-09T01:57:29;2.95;;;1.00;;
40637;SDS011;26336;44.696;10.622;2022-07-09T02:00:32;1.65;;;1.10;;
40637;SDS011;26336;44.696;10.622;2022-07-09T02:03:36;2.15;;;1.05;;
40637;SDS011;26336;44.696;10.622;2022-07-09T02:06:40;5.15;;;1.10;;
40637;SDS011;26336;44.696;10.622;2022-07-09T02:09:44;2.03;;;1.08;;
40637;SDS011;26336;44.696;10.622;2022-07-09T02:12:48;2.75;;;1.02;;
40637;SDS011;26336;44.696;10.622;2022-07-09T02:15:52;1.63;;;0.90;;
40637;SDS011;26336;44.696;10.622;2022-07-09T02:18:56;4.70;;;1.30;;
40637;SDS011;26336;44.696;10.622;2022-07-09T02:22:00;3.05;;;1.80;;
40637;SDS011;26336;44.696;10.622;2022-07-09T02:25:04;3.65;;;1.60;;
40637;SDS011;26336;44.696;10.622;2022-07-09T02:28:09;2.38;;;1.67;;
40637;SDS011;26336;44.696;10.622;2022-07-09T02:31:13;4.13;;;2.20;;
40637;SDS011;26336;44.696;10.622;2022-07-09T02:34:17;5.28;;;2.17;;
40637;SDS011;26336;44.696;10.622;2022-07-09T02:37:21;3.85;;;2.15;;
40637;SDS011;26336;44.696;10.622;2022-07-09T02:40:25;2.75;;;1.80;;
40637;SDS011;26336;44.696;10.622;2022-07-09T02:43:28;6.25;;;3.17;;
40637;SDS011;26336;44.696;10.622;2022-07-09T02:46:33;4.55;;;2.33;;
40637;SDS011;26336;44.696;10.622;2022-07-09T02:49:37;4.78;;;2.50;;
40637;SDS011;26336;44.696;10.622;2022-07-09T02:52:40;9.48;;;2.65;;
40637;SDS011;26336;44.696;10.622;2022-07-09T02:55:45;4.82;;;2.50;;
40637;SDS011;26336;44.696;10.622;2022-07-09T02:58:49;5.60;;;2.50;;
40637;SDS011;26336;44.696;10.622;2022-07-09T03:01:53;5.03;;;2.45;;
40637;SDS011;26336;44.696;10.622;2022-07-09T03:04:57;6.25;;;3.05;;
40637;SDS011;26336;44.696;10.622;2022-07-09T03:08:04;6.25;;;3.08;;
40637;SDS011;26336;44.696;10.622;2022-07-09T03:11:08;5.53;;;2.50;;
40637;SDS011;26336;44.696;10.622;2022-07-09T03:14:13;5.60;;;2.80;;
40637;SDS011;26336;44.696;10.622;2022-07-09T03:17:17;7.25;;;3.30;;
40637;SDS011;26336;44.696;10.622;2022-07-09T03:20:21;5.50;;;3.25;;
40637;SDS011;26336;44.696;10.622;2022-07-09T03:23:25;5.47;;;3.55;;
40637;SDS011;26336;44.696;10.622;2022-07-09T03:26:29;9.80;;;3.65;;
40637;SDS011;26336;44.696;10.622;2022-07-09T03:29:33;6.05;;;3.53;;
40637;SDS011;26336;44.696;10.622;2022-07-09T03:32:37;4.63;;;3.17;;
40637;SDS011;26336;44.696;10.622;2022-07-09T03:35:41;5.95;;;3.00;;
40637;SDS011;26336;44.696;10.622;2022-07-09T03:38:44;3.88;;;2.30;;
40637;SDS011;26336;44.696;10.622;2022-07-09T03:41:48;4.60;;;2.22;;
40637;SDS011;26336;44.696;10.622;2022-07-09T03:44:53;3.38;;;2.50;;
40637;SDS011;26336;44.696;10.622;2022-07-09T03:47:56;3.85;;;2.55;;
40637;SDS011;26336;44.696;10.622;2022-07-09T03:51:00;2.05;;;1.83;;
40637;SDS011;26336;44.696;10.622;2022-07-09T03:54:04;5.15;;;2.08;;
40637;SDS011;26336;44.696;10.622;2022-07-09T03:57:08;2.25;;;1.85;;
40637;SDS011;26336;44.696;10.622;2022-07-09T04:00:13;3.53;;;2.10;;
40637;SDS011;26336;44.696;10.622;2022-07-09T04:03:17;1.85;;;1.50;;
40637;SDS011;26336;44.696;10.622;2022-07-09T04:06:21;3.92;;;1.83;;
40637;SDS011;26336;44.696;10.622;2022-07-09T04:09:25;3.42;;;1.90;;
40637;SDS011;26336;44.696;10.622;2022-07-09T04:12:29;2.63;;;2.15;;
40637;SDS011;26336;44.696;10.622;2022-07-09T04:15:32;3.25;;;2.20;;
40637;SDS011;26336;44.696;10.622;2022-07-09T04:18:36;2.75;;;1.70;;
40637;SDS011;26336;44.696;10.622;2022-07-09T04:21:40;4.07;;;1.42;;
40637;SDS011;26336;44.696;10.622;2022-07-09T04:24:44;3.10;;;1.63;;
40637;SDS011;26336;44.696;10.622;2022-07-09T04:27:48;2.10;;;1.40;;
40637;SDS011;26336;44.696;10.622;2022-07-09T04:30:55;4.13;;;1.90;;
40637;SDS011;26336;44.696;10.622;2022-07-09T04:34:00;3.50;;;2.00;;
40637;SDS011;26336;44.696;10.622;2022-07-09T04:37:04;3.80;;;1.80;;
40637;SDS011;26336;44.696;10.622;2022-07-09T04:40:08;4.10;;;1.30;;
40637;SDS011;26336;44.696;10.622;2022-07-09T04:43:12;3.42;;;1.58;;
40637;SDS011;26336;44.696;10.622;2022-07-09T04:46:16;2.22;;;1.50;;
40637;SDS011;26336;44.696;10.622;2022-07-09T04:49:20;2.75;;;1.80;;
40637;SDS011;26336;44.696;10.622;2022-07-09T04:52:27;3.60;;;1.40;;
40637;SDS011;26336;44.696;10.622;2022-07-09T04:55:32;6.55;;;1.80;;
40637;SDS011;26336;44.696;10.622;2022-07-09T04:58:36;2.95;;;1.65;;
40637;SDS011;26336;44.696;10.622;2022-07-09T05:01:41;8.15;;;2.20;;
40637;SDS011;26336;44.696;10.622;2022-07-09T05:04:45;4.00;;;2.70;;
40637;SDS011;26336;44.696;10.622;2022-07-09T05:07:48;6.28;;;2.40;;
40637;SDS011;26336;44.696;10.622;2022-07-09T05:10:53;3.72;;;2.28;;
40637;SDS011;26336;44.696;10.622;2022-07-09T05:13:57;2.83;;;2.50;;
40637;SDS011;26336;44.696;10.622;2022-07-09T05:17:01;4.45;;;2.45;;
40637;SDS011;26336;44.696;10.622;2022-07-09T05:20:05;4.05;;;2.70;;
40637;SDS011;26336;44.696;10.622;2022-07-09T05:23:10;2.92;;;2.05;;
40637;SDS011;26336;44.696;10.622;2022-07-09T05:26:15;3.58;;;2.03;;
40637;SDS011;26336;44.696;10.622;2022-07-09T05:29:19;3.80;;;1.98;;
40637;SDS011;26336;44.696;10.622;2022-07-09T05:32:26;4.28;;;2.20;;
40637;SDS011;26336;44.696;10.622;2022-07-09T05:35:30;3.88;;;2.10;;
40637;SDS011;26336;44.696;10.622;2022-07-09T05:38:34;6.10;;;2.15;;
40637;SDS011;26336;44.696;10.622;2022-07-09T05:41:38;3.95;;;2.50;;
40637;SDS011;26336;44.696;10.622;2022-07-09T05:44:42;3.92;;;2.80;;
40637;SDS011;26336;44.696;10.622;2022-07-09T05:47:46;6.10;;;2.65;;
40637;SDS011;26336;44.696;10.622;2022-07-09T05:50:50;3.60;;;2.53;;
40637;SDS011;26336;44.696;10.622;2022-07-09T05:53:54;4.65;;;2.50;;
40637;SDS011;26336;44.696;10.622;2022-07-09T05:56:58;9.57;;;6.95;;
40637;SDS011;26336;44.696;10.622;2022-07-09T06:00:03;5.50;;;2.15;;
40637;SDS011;26336;44.696;10.622;2022-07-09T06:03:08;4.72;;;2.40;;
40637;SDS011;26336;44.696;10.622;2022-07-09T06:06:12;4.80;;;1.90;;
40637;SDS011;26336;44.696;10.622;2022-07-09T06:09:16;5.15;;;2.30;;
40637;SDS011;26336;44.696;10.622;2022-07-09T06:12:19;4.63;;;2.10;;
40637;SDS011;26336;44.696;10.622;2022-07-09T06:15:23;6.95;;;2.22;;
40637;SDS011;26336;44.696;10.622;2022-07-09T06:18:28;5.93;;;2.20;;
40637;SDS011;26336;44.696;10.622;2022-07-09T06:21:32;4.13;;;2.15;;
40637;SDS011;26336;44.696;10.622;2022-07-09T06:24:36;7.03;;;3.03;;
40637;SDS011;26336;44.696;10.622;2022-07-09T06:27:40;3.45;;;2.25;;
40637;SDS011;26336;44.696;10.622;2022-07-09T06:30:45;6.70;;;2.30;;
40637;SDS011;26336;44.696;10.622;2022-07-09T06:33:49;5.78;;;2.28;;
40637;SDS011;26336;44.696;10.622;2022-07-09T06:36:53;7.47;;;2.05;;
40637;SDS011;26336;44.696;10.622;2022-07-09T06:39:57;5.57;;;1.70;;
40637;SDS011;26336;44.696;10.622;2022-07-09T06:43:03;3.22;;;1.27;;
40637;SDS011;26336;44.696;10.622;2022-07-09T06:46:12;3.67;;;1.10;;
40637;SDS011;26336;44.696;10.622;2022-07-09T06:49:16;3.85;;;1.00;;
40637;SDS011;26336;44.696;10.622;2022-07-09T06:52:21;2.40;;;1.27;;
40637;SDS011;26336;44.696;10.622;2022-07-09T06:55:25;2.15;;;1.00;;
40637;SDS011;26336;44.696;10.622;2022-07-09T06:58:29;1.63;;;0.90;;
40637;SDS011;26336;44.696;10.622;2022-07-09T07:01:33;3.10;;;1.10;;
40637;SDS011;26336;44.696;10.622;2022-07-09T07:04:48;2.30;;;0.98;;
40637;SDS011;26336;44.696;10.622;2022-07-09T07:07:52;2.78;;;0.82;;
40637;SDS011;26336;44.696;10.622;2022-07-09T07:10:56;2.13;;;0.65;;
40637;SDS011;26336;44.696;10.622;2022-07-09T07:14:02;2.13;;;0.73;;
40637;SDS011;26336;44.696;10.622;2022-07-09T07:17:07;3.13;;;0.80;;
40637;SDS011;26336;44.696;10.622;2022-07-09T07:20:11;2.92;;;0.98;;
40637;SDS011;26336;44.696;10.622;2022-07-09T07:23:15;3.25;;;0.70;;
40637;SDS011;26336;44.696;10.622;2022-07-09T07:26:19;1.83;;;0.60;;
40637;SDS011;26336;44.696;10.622;2022-07-09T07:29:23;3.67;;;0.80;;
40637;SDS011;26336;44.696;10.622;2022-07-09T07:32:31;1.65;;;0.80;;
40637;SDS011;26336;44.696;10.622;2022-07-09T07:35:35;3.85;;;0.73;;
40637;SDS011;26336;44.696;10.622;2022-07-09T07:38:39;1.92;;;0.70;;
40637;SDS011;26336;44.696;10.622;2022-07-09T07:41:43;3.33;;;0.77;;
40637;SDS011;26336;44.696;10.622;2022-07-09T07:44:47;1.15;;;0.77;;
40637;SDS011;26336;44.696;10.622;2022-07-09T07:47:55;2.85;;;1.27;;
40637;SDS011;26336;44.696;10.622;2022-07-09T07:50:59;2.53;;;0.88;;
40637;SDS011;26336;44.696;10.622;2022-07-09T07:54:04;1.70;;;0.70;;
40637;SDS011;26336;44.696;10.622;2022-07-09T07:57:08;1.48;;;0.63;;
40637;SDS011;26336;44.696;10.622;2022-07-09T08:00:12;2.65;;;0.70;;
40637;SDS011;26336;44.696;10.622;2022-07-09T08:03:16;2.95;;;0.70;;
40637;SDS011;26336;44.696;10.622;2022-07-09T08:06:20;6.10;;;0.77;;
40637;SDS011;26336;44.696;10.622;2022-07-09T08:09:25;1.63;;;0.60;;
40637;SDS011;26336;44.696;10.622;2022-07-09T08:12:30;1.70;;;0.70;;
40637;SDS011;26336;44.696;10.622;2022-07-09T08:15:33;2.13;;;0.60;;
40637;SDS011;26336;44.696;10.622;2022-07-09T08:18:37;2.50;;;0.75;;
40637;SDS011;26336;44.696;10.622;2022-07-09T08:21:41;1.98;;;0.65;;
40637;SDS011;26336;44.696;10.622;2022-07-09T08:24:45;1.33;;;0.55;;
40637;SDS011;26336;44.696;10.622;2022-07-09T08:27:49;2.75;;;0.68;;
40637;SDS011;26336;44.696;10.622;2022-07-09T08:30:53;3.42;;;0.60;;
40637;SDS011;26336;44.696;10.622;2022-07-09T08:33:57;3.50;;;0.90;;
40637;SDS011;26336;44.696;10.622;2022-07-09T08:37:01;3.42;;;0.77;;
40637;SDS011;26336;44.696;10.622;2022-07-09T08:40:06;4.32;;;0.68;;
40637;SDS011;26336;44.696;10.622;2022-07-09T08:43:10;1.77;;;0.63;;
40637;SDS011;26336;44.696;10.622;2022-07-09T08:46:14;1.90;;;0.68;;
40637;SDS011;26336;44.696;10.622;2022-07-09T08:49:19;1.67;;;0.50;;
40637;SDS011;26336;44.696;10.622;2022-07-09T08:52:24;1.90;;;0.60;;
40637;SDS011;26336;44.696;10.622;2022-07-09T08:55:29;2.08;;;0.82;;
40637;SDS011;26336;44.696;10.622;2022-07-09T08:58:34;2.20;;;0.60;;
40637;SDS011;26336;44.696;10.622;2022-07-09T09:01:38;1.35;;;0.63;;
40637;SDS011;26336;44.696;10.622;2022-07-09T09:04:42;4.85;;;0.80;;
40637;SDS011;26336;44.696;10.622;2022-07-09T09:07:46;2.47;;;1.00;;
40637;SDS011;26336;44.696;10.622;2022-07-09T09:10:50;2.17;;;0.60;;
40637;SDS011;26336;44.696;10.622;2022-07-09T09:13:54;4.30;;;0.90;;
40637;SDS011;26336;44.696;10.622;2022-07-09T09:17:04;1.25;;;0.68;;
40637;SDS011;26336;44.696;10.622;2022-07-09T09:20:16;2.00;;;0.70;;
40637;SDS011;26336;44.696;10.622;2022-07-09T09:23:20;4.05;;;0.77;;
40637;SDS011;26336;44.696;10.622;2022-07-09T09:26:25;3.17;;;0.85;;
40637;SDS011;26336;44.696;10.622;2022-07-09T09:29:30;3.33;;;0.88;;
40637;SDS011;26336;44.696;10.622;2022-07-09T09:32:34;1.67;;;0.88;;
40637;SDS011;26336;44.696;10.622;2022-07-09T09:35:42;2.58;;;0.63;;
40637;SDS011;26336;44.696;10.622;2022-07-09T09:38:48;2.35;;;1.05;;
40637;SDS011;26336;44.696;10.622;2022-07-09T09:44:57;3.20;;;1.15;;
40637;SDS011;26336;44.696;10.622;2022-07-09T09:48:04;5.32;;;1.00;;
40637;SDS011;26336;44.696;10.622;2022-07-09T09:51:13;2.45;;;0.85;;
40637;SDS011;26336;44.696;10.622;2022-07-09T09:54:20;2.92;;;0.93;;
40637;SDS011;26336;44.696;10.622;2022-07-09T09:57:25;4.00;;;1.27;;
40637;SDS011;26336;44.696;10.622;2022-07-09T10:00:30;2.92;;;1.00;;
40637;SDS011;26336;44.696;10.622;2022-07-09T10:03:35;2.25;;;0.85;;
40637;SDS011;26336;44.696;10.622;2022-07-09T10:06:40;4.32;;;0.80;;
40637;SDS011;26336;44.696;10.622;2022-07-09T10:09:52;3.55;;;0.80;;
40637;SDS011;26336;44.696;10.622;2022-07-09T10:13:03;5.75;;;1.25;;
40637;SDS011;26336;44.696;10.622;2022-07-09T10:16:07;2.80;;;0.82;;
40637;SDS011;26336;44.696;10.622;2022-07-09T10:19:21;3.47;;;0.90;;
40637;SDS011;26336;44.696;10.622;2022-07-09T10:22:37;4.97;;;0.90;;
40637;SDS011;26336;44.696;10.622;2022-07-09T10:25:44;2.88;;;0.80;;
40637;SDS011;26336;44.696;10.622;2022-07-09T10:28:49;1.85;;;0.73;;
40637;SDS011;26336;44.696;10.622;2022-07-09T10:31:53;2.15;;;0.75;;
40637;SDS011;26336;44.696;10.622;2022-07-09T10:35:02;1.63;;;0.73;;
40637;SDS011;26336;44.696;10.622;2022-07-09T10:38:07;2.28;;;0.80;;
40637;SDS011;26336;44.696;10.622;2022-07-09T10:41:20;2.63;;;0.90;;
40637;SDS011;26336;44.696;10.622;2022-07-09T10:44:26;2.88;;;1.38;;
40637;SDS011;26336;44.696;10.622;2022-07-09T10:47:37;2.78;;;1.40;;
40637;SDS011;26336;44.696;10.622;2022-07-09T10:50:43;4.20;;;1.67;;
40637;SDS011;26336;44.696;10.622;2022-07-09T10:53:49;2.00;;;0.80;;
40637;SDS011;26336;44.696;10.622;2022-07-09T10:56:54;1.38;;;0.90;;
40637;SDS011;26336;44.696;10.622;2022-07-09T10:59:59;1.98;;;0.77;;
40637;SDS011;26336;44.696;10.622;2022-07-09T11:03:05;4.47;;;1.00;;
40637;SDS011;26336;44.696;10.622;2022-07-09T11:06:09;5.53;;;0.80;;
40637;SDS011;26336;44.696;10.622;2022-07-09T11:09:14;2.80;;;1.10;;
40637;SDS011;26336;44.696;10.622;2022-07-09T11:12:19;1.17;;;0.82;;
40637;SDS011;26336;44.696;10.622;2022-07-09T11:15:25;2.10;;;0.60;;
40637;SDS011;26336;44.696;10.622;2022-07-09T11:18:34;3.72;;;0.70;;
40637;SDS011;26336;44.696;10.622;2022-07-09T11:21:38;2.13;;;0.50;;
40637;SDS011;26336;44.696;10.622;2022-07-09T11:24:42;2.15;;;1.00;;
40637;SDS011;26336;44.696;10.622;2022-07-09T11:27:46;2.15;;;0.77;;
40637;SDS011;26336;44.696;10.622;2022-07-09T11:31:00;1.15;;;0.68;;
40637;SDS011;26336;44.696;10.622;2022-07-09T11:34:07;1.85;;;0.90;;
40637;SDS011;26336;44.696;10.622;2022-07-09T11:37:21;3.25;;;0.80;;
40637;SDS011;26336;44.696;10.622;2022-07-09T11:40:29;0.85;;;0.60;;
40637;SDS011;26336;44.696;10.622;2022-07-09T11:43:34;1.48;;;0.82;;
40637;SDS011;26336;44.696;10.622;2022-07-09T11:46:40;2.05;;;0.80;;
40637;SDS011;26336;44.696;10.622;2022-07-09T11:49:45;1.73;;;0.65;;
40637;SDS011;26336;44.696;10.622;2022-07-09T11:52:50;2.08;;;0.70;;
40637;SDS011;26336;44.696;10.622;2022-07-09T11:56:01;1.13;;;0.60;;
40637;SDS011;26336;44.696;10.622;2022-07-09T11:59:07;1.00;;;0.57;;
40637;SDS011;26336;44.696;10.622;2022-07-09T12:05:41;2.00;;;0.90;;
40637;SDS011;26336;44.696;10.622;2022-07-09T12:08:57;2.45;;;0.77;;
40637;SDS011;26336;44.696;10.622;2022-07-09T12:12:03;2.30;;;1.42;;
40637;SDS011;26336;44.696;10.622;2022-07-09T12:15:07;7.13;;;1.35;;
40637;SDS011;26336;44.696;10.622;2022-07-09T12:18:11;1.90;;;0.80;;
40637;SDS011;26336;44.696;10.622;2022-07-09T12:21:16;1.90;;;0.90;;
40637;SDS011;26336;44.696;10.622;2022-07-09T12:24:20;3.45;;;1.10;;
40637;SDS011;26336;44.696;10.622;2022-07-09T12:27:24;3.50;;;1.00;;
40637;SDS011;26336;44.696;10.622;2022-07-09T12:30:28;4.05;;;1.15;;
40637;SDS011;26336;44.696;10.622;2022-07-09T12:33:35;3.40;;;1.10;;
40637;SDS011;26336;44.696;10.622;2022-07-09T12:36:39;2.55;;;0.90;;
40637;SDS011;26336;44.696;10.622;2022-07-09T12:39:44;1.70;;;0.88;;
40637;SDS011;26336;44.696;10.622;2022-07-09T12:42:49;1.98;;;1.17;;
40637;SDS011;26336;44.696;10.622;2022-07-09T12:45:53;2.72;;;1.10;;
40637;SDS011;26336;44.696;10.622;2022-07-09T12:48:57;1.80;;;0.80;;
40637;SDS011;26336;44.696;10.622;2022-07-09T12:52:01;3.00;;;0.98;;
40637;SDS011;26336;44.696;10.622;2022-07-09T12:55:08;2.25;;;0.80;;
40637;SDS011;26336;44.696;10.622;2022-07-09T12:58:13;2.83;;;1.00;;
40637;SDS011;26336;44.696;10.622;2022-07-09T13:01:17;1.90;;;1.00;;
40637;SDS011;26336;44.696;10.622;2022-07-09T13:04:21;1.45;;;0.98;;
40637;SDS011;26336;44.696;10.622;2022-07-09T13:07:25;1.63;;;0.77;;
40637;SDS011;26336;44.696;10.622;2022-07-09T13:10:32;1.60;;;0.80;;
40637;SDS011;26336;44.696;10.622;2022-07-09T13:13:36;2.05;;;0.70;;
40637;SDS011;26336;44.696;10.622;2022-07-09T13:16:40;1.10;;;0.70;;
40637;SDS011;26336;44.696;10.622;2022-07-09T13:19:44;1.88;;;0.90;;
40637;SDS011;26336;44.696;10.622;2022-07-09T13:22:50;2.28;;;0.85;;
40637;SDS011;26336;44.696;10.622;2022-07-09T13:25:54;2.33;;;1.05;;
40637;SDS011;26336;44.696;10.622;2022-07-09T13:28:59;4.13;;;0.90;;
40637;SDS011;26336;44.696;10.622;2022-07-09T13:32:03;2.42;;;1.20;;
40637;SDS011;26336;44.696;10.622;2022-07-09T13:35:08;1.52;;;0.70;;
40637;SDS011;26336;44.696;10.622;2022-07-09T13:38:12;1.30;;;0.80;;
40637;SDS011;26336;44.696;10.622;2022-07-09T13:41:17;1.52;;;0.85;;
40637;SDS011;26336;44.696;10.622;2022-07-09T13:44:22;2.05;;;0.80;;
40637;SDS011;26336;44.696;10.622;2022-07-09T13:47:26;1.63;;;0.70;;
40637;SDS011;26336;44.696;10.622;2022-07-09T13:50:30;2.08;;;0.88;;
40637;SDS011;26336;44.696;10.622;2022-07-09T13:53:34;1.77;;;0.70;;
40637;SDS011;26336;44.696;10.622;2022-07-09T13:56:38;1.38;;;0.70;;
40637;SDS011;26336;44.696;10.622;2022-07-09T13:59:42;2.63;;;0.93;;
40637;SDS011;26336;44.696;10.622;2022-07-09T14:02:46;2.42;;;0.90;;
40637;SDS011;26336;44.696;10.622;2022-07-09T14:05:51;3.30;;;0.80;;
40637;SDS011;26336;44.696;10.622;2022-07-09T14:08:55;1.75;;;0.85;;
40637;SDS011;26336;44.696;10.622;2022-07-09T14:11:59;2.42;;;0.98;;
40637;SDS011;26336;44.696;10.622;2022-07-09T14:15:04;1.48;;;0.80;;
40637;SDS011;26336;44.696;10.622;2022-07-09T14:18:08;1.95;;;0.90;;
40637;SDS011;26336;44.696;10.622;2022-07-09T14:21:12;1.17;;;0.95;;
40637;SDS011;26336;44.696;10.622;2022-07-09T14:24:16;1.63;;;0.88;;
40637;SDS011;26336;44.696;10.622;2022-07-09T14:27:20;3.45;;;0.98;;
40637;SDS011;26336;44.696;10.622;2022-07-09T14:30:24;1.92;;;0.65;;
40637;SDS011;26336;44.696;10.622;2022-07-09T14:33:28;2.70;;;0.93;;
40637;SDS011;26336;44.696;10.622;2022-07-09T14:36:32;0.98;;;0.70;;
40637;SDS011;26336;44.696;10.622;2022-07-09T14:39:36;2.33;;;0.80;;
40637;SDS011;26336;44.696;10.622;2022-07-09T14:42:40;2.25;;;0.88;;
40637;SDS011;26336;44.696;10.622;2022-07-09T14:45:44;3.20;;;0.80;;
40637;SDS011;26336;44.696;10.622;2022-07-09T14:48:48;1.95;;;0.85;;
40637;SDS011;26336;44.696;10.622;2022-07-09T14:51:52;1.75;;;0.93;;
40637;SDS011;26336;44.696;10.622;2022-07-09T14:54:57;3.13;;;0.80;;
40637;SDS011;26336;44.696;10.622;2022-07-09T14:58:01;2.88;;;0.95;;
40637;SDS011;26336;44.696;10.622;2022-07-09T15:01:06;2.67;;;1.13;;
40637;SDS011;26336;44.696;10.622;2022-07-09T15:04:10;1.98;;;1.42;;
40637;SDS011;26336;44.696;10.622;2022-07-09T15:07:14;2.30;;;1.00;;
40637;SDS011;26336;44.696;10.622;2022-07-09T15:10:18;3.13;;;1.10;;
40637;SDS011;26336;44.696;10.622;2022-07-09T15:13:26;4.18;;;1.30;;
40637;SDS011;26336;44.696;10.622;2022-07-09T15:16:31;1.75;;;1.15;;
40637;SDS011;26336;44.696;10.622;2022-07-09T15:19:35;3.00;;;1.30;;
40637;SDS011;26336;44.696;10.622;2022-07-09T15:22:39;1.88;;;1.52;;
40637;SDS011;26336;44.696;10.622;2022-07-09T15:25:43;1.88;;;1.40;;
40637;SDS011;26336;44.696;10.622;2022-07-09T15:28:50;2.40;;;1.55;;
40637;SDS011;26336;44.696;10.622;2022-07-09T15:31:54;2.35;;;1.30;;
40637;SDS011;26336;44.696;10.622;2022-07-09T15:35:01;4.53;;;1.48;;
40637;SDS011;26336;44.696;10.622;2022-07-09T15:38:06;1.40;;;1.13;;
40637;SDS011;26336;44.696;10.622;2022-07-09T15:41:10;3.55;;;1.00;;
40637;SDS011;26336;44.696;10.622;2022-07-09T15:44:13;2.58;;;0.80;;
40637;SDS011;26336;44.696;10.622;2022-07-09T15:47:18;1.27;;;1.00;;
40637;SDS011;26336;44.696;10.622;2022-07-09T15:50:22;1.00;;;1.00;;
40637;SDS011;26336;44.696;10.622;2022-07-09T15:53:27;1.80;;;1.10;;
40637;SDS011;26336;44.696;10.622;2022-07-09T15:56:31;1.08;;;0.90;;
40637;SDS011;26336;44.696;10.622;2022-07-09T15:59:35;1.83;;;0.70;;
40637;SDS011;26336;44.696;10.622;2022-07-09T16:02:39;2.78;;;0.80;;
40637;SDS011;26336;44.696;10.622;2022-07-09T16:05:43;4.28;;;1.30;;
40637;SDS011;26336;44.696;10.622;2022-07-09T16:08:47;4.20;;;1.13;;
40637;SDS011;26336;44.696;10.622;2022-07-09T16:11:54;3.60;;;1.13;;
40637;SDS011;26336;44.696;10.622;2022-07-09T16:15:17;1.92;;;1.02;;
40637;SDS011;26336;44.696;10.622;2022-07-09T16:18:21;2.22;;;0.95;;
40637;SDS011;26336;44.696;10.622;2022-07-09T16:21:25;2.25;;;1.30;;
40637;SDS011;26336;44.696;10.622;2022-07-09T16:24:29;2.10;;;1.10;;
40637;SDS011;26336;44.696;10.622;2022-07-09T16:27:33;2.42;;;1.13;;
40637;SDS011;26336;44.696;10.622;2022-07-09T16:30:37;2.08;;;0.90;;
40637;SDS011;26336;44.696;10.622;2022-07-09T16:33:41;1.25;;;0.68;;
40637;SDS011;26336;44.696;10.622;2022-07-09T16:36:45;3.55;;;1.45;;
40637;SDS011;26336;44.696;10.622;2022-07-09T16:39:52;3.55;;;0.90;;
40637;SDS011;26336;44.696;10.622;2022-07-09T16:42:56;1.80;;;1.00;;
40637;SDS011;26336;44.696;10.622;2022-07-09T16:46:00;1.30;;;0.90;;
40637;SDS011;26336;44.696;10.622;2022-07-09T16:49:13;2.75;;;0.90;;
40637;SDS011;26336;44.696;10.622;2022-07-09T16:52:17;1.55;;;0.80;;
40637;SDS011;26336;44.696;10.622;2022-07-09T16:55:21;3.95;;;0.90;;
40637;SDS011;26336;44.696;10.622;2022-07-09T16:58:25;3.85;;;0.80;;
40637;SDS011;26336;44.696;10.622;2022-07-09T17:01:30;1.85;;;0.90;;
40637;SDS011;26336;44.696;10.622;2022-07-09T17:04:35;1.63;;;1.20;;
40637;SDS011;26336;44.696;10.622;2022-07-09T17:07:39;4.20;;;1.17;;
40637;SDS011;26336;44.696;10.622;2022-07-09T17:10:43;1.17;;;0.82;;
40637;SDS011;26336;44.696;10.622;2022-07-09T17:13:47;3.95;;;0.80;;
40637;SDS011;26336;44.696;10.622;2022-07-09T17:16:51;3.10;;;1.10;;
40637;SDS011;26336;44.696;10.622;2022-07-09T17:19:55;2.55;;;0.82;;
40637;SDS011;26336;44.696;10.622;2022-07-09T17:22:59;1.00;;;0.80;;
40637;SDS011;26336;44.696;10.622;2022-07-09T17:26:03;3.05;;;1.02;;
40637;SDS011;26336;44.696;10.622;2022-07-09T17:29:07;2.70;;;0.90;;
40637;SDS011;26336;44.696;10.622;2022-07-09T17:32:12;3.17;;;1.15;;
40637;SDS011;26336;44.696;10.622;2022-07-09T17:35:16;3.67;;;2.38;;
40637;SDS011;26336;44.696;10.622;2022-07-09T17:38:20;3.47;;;1.70;;
40637;SDS011;26336;44.696;10.622;2022-07-09T17:41:24;3.83;;;1.35;;
40637;SDS011;26336;44.696;10.622;2022-07-09T17:44:28;3.75;;;1.08;;
40637;SDS011;26336;44.696;10.622;2022-07-09T17:47:33;1.63;;;0.80;;
40637;SDS011;26336;44.696;10.622;2022-07-09T17:50:37;1.60;;;0.77;;
40637;SDS011;26336;44.696;10.622;2022-07-09T17:53:41;4.40;;;1.30;;
40637;SDS011;26336;44.696;10.622;2022-07-09T17:56:45;2.15;;;0.70;;
40637;SDS011;26336;44.696;10.622;2022-07-09T17:59:49;2.05;;;0.80;;
40637;SDS011;26336;44.696;10.622;2022-07-09T18:02:53;1.92;;;0.85;;
40637;SDS011;26336;44.696;10.622;2022-07-09T18:05:57;4.10;;;0.88;;
40637;SDS011;26336;44.696;10.622;2022-07-09T18:09:01;3.72;;;0.98;;
40637;SDS011;26336;44.696;10.622;2022-07-09T18:12:07;3.22;;;0.82;;
40637;SDS011;26336;44.696;10.622;2022-07-09T18:15:11;3.70;;;1.00;;
40637;SDS011;26336;44.696;10.622;2022-07-09T18:18:16;2.58;;;0.98;;
40637;SDS011;26336;44.696;10.622;2022-07-09T18:21:20;2.60;;;0.90;;